Time;durP1;ratioP1;P1;durP2;ratioP2;P2;SDS_P1;SDS_P2;PMS_P1;PMS_P2;Temp;Humidity;BMP_temperature;BMP_pressure;BME280_temperature;BME280_humidity;BME280_pressure;Samples;Min_cycle;Max_cycle;Signal;HPM_P1;HPM_P2
2023/12/25 00:01:41;;;;;;;2.27;1.90;;;12.30;99.90;;;;;;4951665;28;20429;-33
2023/12/25 00:04:09;;;;;;;2.77;1.90;;;12.30;99.90;;;;;;4972411;28;20441;-30
2023/12/25 00:06:38;;;;;;;2.33;1.77;;;12.30;99.90;;;;;;4961466;28;20552;-33
2023/12/25 00:09:04;;;;;;;1.80;1.50;;;12.30;99.90;;;;;;4962133;28;20430;-35
2023/12/25 00:11:30;;;;;;;2.70;2.27;;;12.30;99.90;;;;;;4957335;28;20473;-32
2023/12/25 00:13:59;;;;;;;1.73;1.63;;;12.30;99.90;;;;;;4956852;28;20447;-31
2023/12/25 00:16:26;;;;;;;2.83;1.80;;;12.30;99.90;;;;;;4960726;28;20449;-32
2023/12/25 00:19:00;;;;;;;2.10;1.90;;;12.30;99.90;;;;;;4943402;28;20456;-33
2023/12/25 00:21:26;;;;;;;1.83;1.73;;;12.30;99.90;;;;;;4958101;28;20434;-33
2023/12/25 00:23:54;;;;;;;2.50;1.90;;;12.30;99.90;;;;;;4938897;28;20446;-32
2023/12/25 00:26:20;;;;;;;2.67;1.90;;;12.30;99.90;;;;;;4956559;28;20486;-33
2023/12/25 00:28:46;;;;;;;1.80;1.70;;;12.30;99.90;;;;;;4960295;28;20427;-31
2023/12/25 00:31:14;;;;;;;2.00;1.80;;;12.30;99.90;;;;;;4964475;28;20497;-33
2023/12/25 00:33:39;;;;;;;4.10;2.10;;;12.30;99.90;;;;;;4953182;28;20516;-33
2023/12/25 00:36:06;;;;;;;5.07;3.07;;;12.30;99.90;;;;;;4933694;28;20450;-33
2023/12/25 00:38:34;;;;;;;4.03;1.63;;;12.30;99.90;;;;;;4975078;28;20458;-32
2023/12/25 00:41:03;;;;;;;3.20;1.90;;;12.30;99.90;;;;;;4941364;28;20450;-31
2023/12/25 00:43:31;;;;;;;2.87;1.73;;;12.30;99.90;;;;;;4975476;28;20670;-32
2023/12/25 00:45:58;;;;;;;2.00;1.70;;;12.30;99.90;;;;;;4965238;28;20956;-33
2023/12/25 00:48:26;;;;;;;2.13;1.80;;;12.30;99.90;;;;;;4955641;28;21189;-32
2023/12/25 00:50:52;;;;;;;3.40;2.20;;;12.30;99.90;;;;;;4950854;28;20568;-34
2023/12/25 00:53:24;;;;;;;2.43;2.00;;;12.30;99.90;;;;;;4953929;28;20453;-31
2023/12/25 00:55:50;;;;;;;2.40;2.00;;;12.30;99.90;;;;;;4936749;28;20526;-32
2023/12/25 00:58:20;;;;;;;2.80;2.00;;;12.30;99.90;;;;;;4955350;28;20944;-35
2023/12/25 01:00:47;;;;;;;2.80;2.00;;;12.30;99.90;;;;;;4975847;28;20468;-35
2023/12/25 01:03:16;;;;;;;2.57;2.10;;;12.30;99.90;;;;;;4957913;28;20465;-33
2023/12/25 01:05:44;;;;;;;8.13;3.20;;;12.30;99.90;;;;;;4974455;28;20552;-32
2023/12/25 01:08:10;;;;;;;6.43;1.90;;;12.30;99.90;;;;;;4959391;28;20463;-29
2023/12/25 01:10:36;;;;;;;2.43;1.70;;;12.40;99.90;;;;;;4953868;28;21306;-29
2023/12/25 01:13:05;;;;;;;3.07;1.60;;;12.30;99.90;;;;;;4947991;28;20532;-30
2023/12/25 01:15:31;;;;;;;2.73;2.13;;;12.40;99.90;;;;;;4974084;28;20442;-30
2023/12/25 01:18:02;;;;;;;2.43;2.23;;;12.30;99.90;;;;;;4959514;28;20459;-30
2023/12/25 01:20:30;;;;;;;3.03;1.73;;;12.40;99.90;;;;;;4973291;28;20444;-33
2023/12/25 01:22:59;;;;;;;2.33;1.87;;;12.40;99.90;;;;;;4967360;28;20462;-31
2023/12/25 01:25:25;;;;;;;2.27;2.07;;;12.40;99.90;;;;;;4957979;28;20436;-32
2023/12/25 01:27:51;;;;;;;1.80;1.70;;;12.40;99.90;;;;;;4973999;28;20457;-34
2023/12/25 01:30:17;;;;;;;2.10;1.90;;;12.30;99.90;;;;;;4927547;28;20475;-30
2023/12/25 01:32:45;;;;;;;2.60;1.97;;;12.40;99.90;;;;;;4966189;28;20480;-32
2023/12/25 01:35:11;;;;;;;2.60;2.40;;;12.40;99.90;;;;;;4957222;28;20441;-33
2023/12/25 01:37:37;;;;;;;2.00;1.90;;;12.40;99.90;;;;;;4955450;28;20540;-33
2023/12/25 01:40:04;;;;;;;9.63;2.13;;;12.40;99.90;;;;;;4968031;28;20433;-31
2023/12/25 01:42:30;;;;;;;3.60;2.07;;;12.40;99.90;;;;;;4954048;28;20429;-35
2023/12/25 01:44:58;;;;;;;2.40;2.17;;;12.40;99.90;;;;;;4961246;28;20450;-32
2023/12/25 01:47:27;;;;;;;2.00;1.80;;;12.40;99.90;;;;;;4953480;28;21085;-34
2023/12/25 01:50:00;;;;;;;3.00;2.00;;;12.40;99.90;;;;;;4978357;28;20433;-32
2023/12/25 01:52:27;;;;;;;2.07;1.80;;;12.40;99.90;;;;;;4973962;28;20445;-31
2023/12/25 01:54:55;;;;;;;5.20;2.30;;;12.40;99.90;;;;;;4948431;28;20862;-35
2023/12/25 01:57:22;;;;;;;2.27;2.00;;;12.40;99.90;;;;;;4968197;28;20466;-31
2023/12/25 01:59:50;;;;;;;3.93;2.40;;;12.40;99.90;;;;;;4969864;28;20431;-30
2023/12/25 02:02:18;;;;;;;4.00;2.03;;;12.40;99.90;;;;;;4972639;28;20426;-32
2023/12/25 02:04:48;;;;;;;2.80;1.90;;;12.40;99.90;;;;;;4959103;28;20865;-34
2023/12/25 02:07:15;;;;;;;1.77;1.67;;;12.40;99.90;;;;;;4945428;28;20466;-32
2023/12/25 02:09:46;;;;;;;2.60;2.40;;;12.40;99.90;;;;;;4950052;28;21217;-30
2023/12/25 02:12:16;;;;;;;3.03;2.13;;;12.40;99.90;;;;;;4951705;28;20997;-36
2023/12/25 02:14:44;;;;;;;2.53;1.83;;;12.40;99.90;;;;;;4928295;28;20425;-35
2023/12/25 02:17:13;;;;;;;2.10;1.90;;;12.40;99.90;;;;;;4948794;28;20438;-31
2023/12/25 02:19:43;;;;;;;1.77;1.60;;;12.40;99.90;;;;;;4951735;28;21010;-33
2023/12/25 02:22:18;;;;;;;1.73;1.63;;;12.40;99.90;;;;;;4952484;28;20545;-31
2023/12/25 02:25:13;;;;;;;1.80;1.70;;;12.40;99.90;;;;;;4937465;28;20434;-30
2023/12/25 02:27:39;;;;;;;1.97;1.77;;;12.40;99.90;;;;;;4964840;28;20566;-31
2023/12/25 02:30:08;;;;;;;2.40;1.70;;;12.40;99.90;;;;;;4971422;28;20450;-33
2023/12/25 02:32:34;;;;;;;2.13;1.60;;;12.40;99.90;;;;;;4975838;28;20485;-34
2023/12/25 02:35:00;;;;;;;3.47;1.73;;;12.40;99.90;;;;;;4951742;28;20430;-30
2023/12/25 02:37:26;;;;;;;2.20;1.90;;;12.40;99.90;;;;;;4972148;28;20514;-33
2023/12/25 02:39:52;;;;;;;3.23;2.13;;;12.40;99.90;;;;;;4972989;28;20448;-31
2023/12/25 02:42:21;;;;;;;1.90;1.80;;;12.40;99.90;;;;;;4972604;28;20430;-35
2023/12/25 02:44:47;;;;;;;3.70;1.97;;;12.40;99.90;;;;;;4953043;28;20493;-31
2023/12/25 02:47:15;;;;;;;1.57;1.47;;;12.40;99.90;;;;;;4949464;28;20485;-34
2023/12/25 02:49:41;;;;;;;2.10;1.60;;;12.40;99.90;;;;;;4968455;28;21296;-31
2023/12/25 02:52:07;;;;;;;2.20;2.00;;;12.40;99.90;;;;;;4965275;28;20460;-33
2023/12/25 02:54:35;;;;;;;2.17;1.97;;;12.40;99.90;;;;;;4956041;28;20506;-33
2023/12/25 02:57:01;;;;;;;2.10;1.80;;;12.40;99.90;;;;;;4951526;28;21340;-30
2023/12/25 02:59:27;;;;;;;1.60;1.43;;;12.40;99.90;;;;;;4954012;28;20441;-34
2023/12/25 03:01:56;;;;;;;2.60;1.57;;;12.40;99.90;;;;;;4965863;28;20447;-33
2023/12/25 03:04:24;;;;;;;1.90;1.57;;;12.40;99.90;;;;;;4972074;28;20532;-33
2023/12/25 03:06:50;;;;;;;2.00;1.70;;;12.40;99.90;;;;;;4951074;28;20477;-30
2023/12/25 03:09:16;;;;;;;3.20;2.30;;;12.40;99.90;;;;;;4935072;28;20606;-31
2023/12/25 03:11:43;;;;;;;2.60;1.70;;;12.50;99.90;;;;;;4945682;28;20425;-33
2023/12/25 03:14:12;;;;;;;1.90;1.80;;;12.40;99.90;;;;;;4970181;28;20442;-30
2023/12/25 03:16:38;;;;;;;2.23;1.50;;;12.40;99.90;;;;;;4972470;28;20461;-31
2023/12/25 03:19:08;;;;;;;1.90;1.53;;;12.40;99.90;;;;;;4958987;28;20437;-33
2023/12/25 03:21:37;;;;;;;2.10;1.93;;;12.40;99.90;;;;;;4970904;28;20924;-34
2023/12/25 03:24:05;;;;;;;1.90;1.70;;;12.40;99.90;;;;;;4951281;28;20871;-30
2023/12/25 03:26:34;;;;;;;1.90;1.80;;;12.40;99.90;;;;;;4945831;28;20823;-30
2023/12/25 03:29:00;;;;;;;2.13;1.90;;;12.40;99.90;;;;;;4947582;28;21009;-32
2023/12/25 03:31:26;;;;;;;2.03;1.83;;;12.50;99.90;;;;;;4951745;28;20523;-31
2023/12/25 03:33:52;;;;;;;1.57;1.40;;;12.40;99.90;;;;;;4947612;28;20461;-30
2023/12/25 03:36:22;;;;;;;1.50;1.40;;;12.40;99.90;;;;;;4954963;28;21513;-32
2023/12/25 03:38:51;;;;;;;1.80;1.70;;;12.50;99.90;;;;;;4955344;28;21138;-32
2023/12/25 03:41:17;;;;;;;2.30;1.73;;;12.50;99.90;;;;;;4959477;28;21147;-29
2023/12/25 03:43:43;;;;;;;2.00;1.80;;;12.50;99.90;;;;;;4954130;28;20439;-36
2023/12/25 03:46:10;;;;;;;2.70;1.40;;;12.40;99.90;;;;;;4952801;28;20477;-33
2023/12/25 03:48:36;;;;;;;2.53;1.57;;;12.50;99.90;;;;;;4956206;28;20587;-30
2023/12/25 03:51:07;;;;;;;3.33;1.50;;;12.40;99.90;;;;;;4936745;28;20447;-36
2023/12/25 03:53:33;;;;;;;1.90;1.33;;;12.40;99.90;;;;;;4974999;28;20731;-31
2023/12/25 03:56:03;;;;;;;1.67;1.57;;;12.50;99.90;;;;;;4961251;28;20446;-35
2023/12/25 03:58:29;;;;;;;1.70;1.50;;;12.50;99.90;;;;;;4954357;28;20435;-33
2023/12/25 04:00:57;;;;;;;1.73;1.20;;;12.50;99.90;;;;;;4950230;28;20431;-36
2023/12/25 04:03:26;;;;;;;1.80;1.70;;;12.50;99.90;;;;;;4970824;28;20516;-34
2023/12/25 04:05:52;;;;;;;1.43;1.20;;;12.40;99.90;;;;;;4952784;28;20473;-33
2023/12/25 04:08:18;;;;;;;1.57;1.47;;;12.50;99.90;;;;;;4965644;28;21034;-32
2023/12/25 04:10:44;;;;;;;1.50;1.40;;;12.40;99.90;;;;;;4961406;28;21328;-33
2023/12/25 04:13:10;;;;;;;1.50;1.40;;;12.50;99.90;;;;;;4969836;28;20481;-33
2023/12/25 04:15:36;;;;;;;1.60;1.50;;;12.50;99.90;;;;;;4956923;28;20454;-34
2023/12/25 04:18:09;;;;;;;1.97;1.50;;;12.50;99.90;;;;;;4955664;28;20440;-34
2023/12/25 04:20:35;;;;;;;1.50;1.40;;;12.50;99.90;;;;;;4961105;28;20573;-28
2023/12/25 04:23:01;;;;;;;1.90;1.50;;;12.50;99.90;;;;;;4953522;28;20483;-34
2023/12/25 04:25:27;;;;;;;1.60;1.50;;;12.50;99.90;;;;;;4955378;28;20943;-33
2023/12/25 04:27:53;;;;;;;2.30;1.63;;;12.50;99.90;;;;;;4951859;28;20442;-34
2023/12/25 04:30:24;;;;;;;1.67;1.57;;;12.50;99.90;;;;;;4953202;28;20438;-33
2023/12/25 04:32:51;;;;;;;1.40;1.30;;;12.50;99.90;;;;;;4940903;28;21734;-31
2023/12/25 04:35:17;;;;;;;1.60;1.20;;;12.50;99.90;;;;;;4960210;28;20452;-27
2023/12/25 04:37:46;;;;;;;1.53;1.37;;;12.50;99.90;;;;;;4960648;28;20485;-30
2023/12/25 04:40:13;;;;;;;1.93;1.67;;;12.50;99.90;;;;;;4956373;28;20556;-27
2023/12/25 04:42:39;;;;;;;3.70;1.83;;;12.50;99.90;;;;;;4950862;28;20425;-34
2023/12/25 04:45:05;;;;;;;1.40;1.30;;;12.50;99.90;;;;;;4955218;28;20853;-32
2023/12/25 04:47:35;;;;;;;2.20;1.53;;;12.50;99.90;;;;;;4954859;28;20567;-32
2023/12/25 04:50:01;;;;;;;2.33;1.80;;;12.50;99.90;;;;;;4957715;28;20473;-33
2023/12/25 04:52:30;;;;;;;1.30;1.20;;;12.50;99.90;;;;;;4958807;28;20433;-33
2023/12/25 04:54:59;;;;;;;2.03;1.60;;;12.50;99.90;;;;;;4941273;28;20442;-32
2023/12/25 04:57:24;;;;;;;3.30;1.70;;;12.50;99.90;;;;;;4952013;28;21135;-33
2023/12/25 04:59:50;;;;;;;1.47;1.37;;;12.50;99.90;;;;;;4959675;28;20503;-32
2023/12/25 05:02:18;;;;;;;2.10;1.50;;;12.50;99.90;;;;;;4953829;28;20303;-35
2023/12/25 05:04:47;;;;;;;1.60;1.40;;;12.50;99.90;;;;;;4958261;28;20569;-34
2023/12/25 05:07:13;;;;;;;1.60;1.50;;;12.50;99.90;;;;;;4969376;28;20907;-30
2023/12/25 05:09:41;;;;;;;1.40;1.30;;;12.50;99.90;;;;;;4960430;28;20496;-30
2023/12/25 05:12:08;;;;;;;1.40;1.30;;;12.50;99.90;;;;;;4956468;28;20428;-32
2023/12/25 05:14:34;;;;;;;2.00;1.33;;;12.50;99.90;;;;;;4951877;28;20435;-31
2023/12/25 05:17:00;;;;;;;1.30;1.20;;;12.50;99.90;;;;;;4970334;28;20455;-32
2023/12/25 05:19:26;;;;;;;1.30;1.20;;;12.50;99.90;;;;;;4953434;28;20512;-33
2023/12/25 05:21:52;;;;;;;2.00;1.60;;;12.50;99.90;;;;;;4960507;28;20453;-30
2023/12/25 05:24:20;;;;;;;1.57;1.37;;;12.50;99.90;;;;;;4938623;28;20537;-33
2023/12/25 05:26:48;;;;;;;1.40;1.30;;;12.50;99.90;;;;;;4956223;28;20476;-33
2023/12/25 05:29:15;;;;;;;2.20;1.30;;;12.50;99.90;;;;;;4969830;28;20551;-35
2023/12/25 05:31:41;;;;;;;1.50;1.40;;;12.50;99.90;;;;;;4969524;28;20446;-31
2023/12/25 05:34:06;;;;;;;1.47;1.37;;;12.50;99.90;;;;;;4969411;28;20438;-35
2023/12/25 05:36:35;;;;;;;1.47;1.37;;;12.50;99.90;;;;;;4955639;28;21244;-33
2023/12/25 05:39:01;;;;;;;1.30;1.20;;;12.50;99.90;;;;;;4977182;28;20447;-35
2023/12/25 05:41:27;;;;;;;1.70;1.30;;;12.50;99.90;;;;;;4972819;28;20437;-34
2023/12/25 05:43:53;;;;;;;1.43;1.33;;;12.50;99.90;;;;;;4957398;28;20207;-36
2023/12/25 05:46:21;;;;;;;1.77;1.43;;;12.50;99.90;;;;;;4955507;28;20480;-32
2023/12/25 05:48:47;;;;;;;1.23;1.10;;;12.50;99.90;;;;;;4940350;28;20190;-34
2023/12/25 05:51:13;;;;;;;1.20;1.10;;;12.50;99.90;;;;;;4954033;28;20431;-31
2023/12/25 05:53:39;;;;;;;1.20;1.10;;;12.50;99.90;;;;;;4968670;28;20217;-31
2023/12/25 05:56:08;;;;;;;1.30;1.20;;;12.50;99.90;;;;;;4958212;28;21226;-31
2023/12/25 05:58:36;;;;;;;1.40;1.30;;;12.50;99.90;;;;;;4966078;28;20437;-31
2023/12/25 06:01:02;;;;;;;1.40;1.20;;;12.50;99.90;;;;;;4969005;28;20435;-31
2023/12/25 06:03:31;;;;;;;1.70;1.60;;;12.50;99.90;;;;;;4944067;28;20438;-33
2023/12/25 06:05:58;;;;;;;1.50;1.40;;;12.50;99.90;;;;;;4951602;28;20562;-30
2023/12/25 06:08:24;;;;;;;1.20;1.10;;;12.50;99.90;;;;;;4953912;28;20429;-34
2023/12/25 06:10:51;;;;;;;1.50;1.40;;;12.50;99.90;;;;;;4951399;28;21145;-31
2023/12/25 06:13:17;;;;;;;2.67;1.30;;;12.50;99.90;;;;;;4958850;28;21322;-34
2023/12/25 06:15:45;;;;;;;1.20;0.90;;;12.50;99.90;;;;;;4968502;28;20448;-34
2023/12/25 06:18:13;;;;;;;1.43;1.33;;;12.50;99.90;;;;;;4961154;28;20419;-32
2023/12/25 06:20:39;;;;;;;1.30;1.17;;;12.50;99.90;;;;;;4966059;28;20483;-29
2023/12/25 06:23:05;;;;;;;1.83;1.40;;;12.50;99.90;;;;;;4968355;28;20445;-32
2023/12/25 06:25:32;;;;;;;1.20;1.10;;;12.50;99.90;;;;;;4974711;28;20423;-30
2023/12/25 06:27:58;;;;;;;2.47;1.67;;;12.50;99.90;;;;;;4948718;28;20933;-30
2023/12/25 06:30:24;;;;;;;1.67;1.40;;;12.50;99.90;;;;;;4952647;28;20426;-30
2023/12/25 06:32:53;;;;;;;1.37;1.27;;;12.50;99.90;;;;;;4963051;28;21123;-34
2023/12/25 06:35:19;;;;;;;1.70;1.30;;;12.50;99.90;;;;;;4970366;28;20430;-33
2023/12/25 06:37:45;;;;;;;1.57;1.40;;;12.50;99.90;;;;;;4949894;28;21226;-32
2023/12/25 06:40:11;;;;;;;1.30;1.20;;;12.50;99.90;;;;;;4973707;28;20522;-32
2023/12/25 06:42:37;;;;;;;1.43;1.33;;;12.50;99.90;;;;;;4952074;28;21055;-32
2023/12/25 06:45:06;;;;;;;2.63;1.40;;;12.50;99.90;;;;;;4969717;28;20764;-31
2023/12/25 06:47:34;;;;;;;1.90;1.27;;;12.50;99.90;;;;;;4972892;28;20481;-30
2023/12/25 06:50:02;;;;;;;2.37;1.20;;;12.50;99.90;;;;;;4954614;28;21236;-30
2023/12/25 06:52:28;;;;;;;1.30;1.20;;;12.50;99.90;;;;;;4940722;28;20442;-36
2023/12/25 06:54:57;;;;;;;1.67;1.37;;;12.50;99.90;;;;;;4965749;28;20981;-34
2023/12/25 06:57:26;;;;;;;1.23;1.13;;;12.50;99.90;;;;;;4970277;28;20493;-28
2023/12/25 06:59:52;;;;;;;1.87;1.13;;;12.50;99.90;;;;;;4950590;28;21029;-32
2023/12/25 07:02:18;;;;;;;2.03;1.23;;;12.50;99.90;;;;;;4969870;28;21006;-31
2023/12/25 07:04:44;;;;;;;1.97;1.10;;;12.50;99.90;;;;;;4944007;28;20493;-32
2023/12/25 07:07:12;;;;;;;1.30;1.20;;;12.50;99.90;;;;;;4971644;28;20472;-37
2023/12/25 07:09:42;;;;;;;1.40;1.30;;;12.50;99.90;;;;;;4973847;28;20438;-36
2023/12/25 07:12:08;;;;;;;1.63;1.40;;;12.50;99.90;;;;;;4971051;28;20431;-34
2023/12/25 07:14:34;;;;;;;1.20;1.10;;;12.50;99.90;;;;;;4968214;28;20433;-30
2023/12/25 07:17:04;;;;;;;0.93;0.93;;;12.50;99.90;;;;;;4977131;28;20531;-34
2023/12/25 07:19:30;;;;;;;2.60;1.30;;;12.50;99.90;;;;;;4976511;28;20509;-33
2023/12/25 07:21:59;;;;;;;3.13;1.27;;;12.50;99.90;;;;;;4977538;28;20544;-33
2023/12/25 07:24:24;;;;;;;1.60;1.50;;;12.50;99.90;;;;;;4945453;28;21103;-32
2023/12/25 07:26:51;;;;;;;1.80;1.70;;;12.50;99.90;;;;;;4948262;28;20471;-34
2023/12/25 07:29:17;;;;;;;1.40;1.30;;;12.50;99.90;;;;;;4958679;28;20483;-35
2023/12/25 07:31:43;;;;;;;1.43;1.20;;;12.50;99.90;;;;;;4970567;28;20429;-32
2023/12/25 07:34:09;;;;;;;2.60;1.40;;;12.50;99.90;;;;;;4935096;28;20437;-33
2023/12/25 07:36:35;;;;;;;1.70;1.60;;;12.50;99.90;;;;;;4971963;28;21040;-32
2023/12/25 07:39:01;;;;;;;2.80;1.33;;;12.50;99.90;;;;;;4961187;28;20517;-35
2023/12/25 07:41:29;;;;;;;1.30;1.20;;;12.50;99.90;;;;;;4977086;28;20436;-31
2023/12/25 07:44:00;;;;;;;1.40;1.30;;;12.50;99.90;;;;;;4972979;28;20436;-32
2023/12/25 07:46:27;;;;;;;1.00;1.00;;;12.50;99.90;;;;;;4942957;28;20508;-31
2023/12/25 07:48:54;;;;;;;1.10;1.00;;;12.50;99.90;;;;;;4969899;28;20417;-32
2023/12/25 07:51:22;;;;;;;1.73;1.10;;;12.50;99.90;;;;;;4977659;28;21266;-35
2023/12/25 07:53:50;;;;;;;1.33;1.23;;;12.50;99.90;;;;;;4968663;28;21251;-35
2023/12/25 07:56:19;;;;;;;1.77;1.23;;;12.50;99.90;;;;;;4973788;28;20450;-32
2023/12/25 07:58:47;;;;;;;1.20;1.00;;;12.50;99.90;;;;;;4951332;28;20555;-35
2023/12/25 08:01:19;;;;;;;1.83;1.03;;;12.50;99.90;;;;;;4969426;28;20460;-32
2023/12/25 08:03:45;;;;;;;1.53;1.20;;;12.50;99.90;;;;;;4956654;28;20492;-36
2023/12/25 08:06:11;;;;;;;1.90;1.27;;;12.50;99.90;;;;;;4971688;28;20524;-35
2023/12/25 08:08:37;;;;;;;1.40;1.30;;;12.50;99.90;;;;;;4967657;28;20461;-33
2023/12/25 08:11:03;;;;;;;2.87;1.20;;;12.50;99.90;;;;;;4973384;28;20504;-31
2023/12/25 08:13:29;;;;;;;1.30;1.20;;;12.50;99.90;;;;;;4953214;28;20421;-38
2023/12/25 08:15:55;;;;;;;2.00;1.20;;;12.50;99.90;;;;;;4970309;28;20480;-32
2023/12/25 08:18:22;;;;;;;1.30;1.20;;;12.50;99.90;;;;;;4950958;28;20936;-33
2023/12/25 08:20:50;;;;;;;1.40;1.30;;;12.60;99.90;;;;;;4973707;28;20996;-35
2023/12/25 08:23:16;;;;;;;1.83;1.30;;;12.60;99.90;;;;;;4978174;28;20450;-32
2023/12/25 08:25:42;;;;;;;1.80;1.47;;;12.60;99.90;;;;;;4976431;28;20468;-32
2023/12/25 08:28:09;;;;;;;2.63;1.10;;;12.60;99.90;;;;;;4969914;28;21313;-32
2023/12/25 08:30:35;;;;;;;1.50;1.10;;;12.60;99.90;;;;;;4954052;28;20445;-34
2023/12/25 08:33:06;;;;;;;1.30;1.20;;;12.50;99.90;;;;;;4959026;28;20473;-33
2023/12/25 08:35:34;;;;;;;1.10;1.03;;;12.60;99.90;;;;;;4968521;28;20492;-32
2023/12/25 08:38:00;;;;;;;1.40;1.30;;;12.60;99.90;;;;;;4974508;28;21109;-32
2023/12/25 08:40:32;;;;;;;1.93;0.90;;;12.50;99.90;;;;;;4953527;28;20433;-35
2023/12/25 08:42:58;;;;;;;1.87;1.30;;;12.60;99.90;;;;;;4933831;28;20990;-33
2023/12/25 08:45:26;;;;;;;1.33;1.23;;;12.60;99.90;;;;;;4952599;28;20492;-33
2023/12/25 08:47:55;;;;;;;1.37;1.27;;;12.60;99.90;;;;;;4974268;28;20477;-31
2023/12/25 08:50:21;;;;;;;3.10;1.30;;;12.60;99.90;;;;;;4970033;28;20426;-33
2023/12/25 08:52:49;;;;;;;1.60;1.50;;;12.60;99.90;;;;;;4974751;28;20444;-30
2023/12/25 08:55:15;;;;;;;2.20;1.30;;;12.60;99.90;;;;;;4973579;28;20481;-32
2023/12/25 08:57:41;;;;;;;2.90;1.30;;;12.60;99.90;;;;;;4944800;28;20474;-34
2023/12/25 09:00:10;;;;;;;1.47;1.20;;;12.60;99.90;;;;;;4953359;28;21231;-36
2023/12/25 09:02:37;;;;;;;1.37;1.20;;;12.60;99.90;;;;;;4965746;28;20534;-32
2023/12/25 09:05:03;;;;;;;2.23;1.50;;;12.60;99.90;;;;;;4973938;28;20453;-32
2023/12/25 09:07:29;;;;;;;1.40;1.30;;;12.60;99.90;;;;;;4976227;28;20952;-35
2023/12/25 09:09:58;;;;;;;1.33;1.23;;;12.60;99.90;;;;;;4959135;28;21369;-33
2023/12/25 09:12:24;;;;;;;1.13;1.10;;;12.60;99.90;;;;;;4972642;28;20437;-34
2023/12/25 09:14:52;;;;;;;1.37;1.27;;;12.60;99.90;;;;;;4956869;28;20422;-34
2023/12/25 09:17:21;;;;;;;1.40;1.30;;;12.60;99.90;;;;;;4966231;28;20453;-32
2023/12/25 09:19:50;;;;;;;2.43;1.20;;;12.60;99.90;;;;;;4959156;28;20429;-37
2023/12/25 09:22:17;;;;;;;1.33;0.97;;;12.60;99.90;;;;;;4959964;28;20441;-26
2023/12/25 09:24:45;;;;;;;1.87;1.10;;;12.60;99.90;;;;;;4973623;28;20513;-33
2023/12/25 09:27:12;;;;;;;1.60;1.30;;;12.60;99.90;;;;;;4955384;28;20482;-27
2023/12/25 09:29:38;;;;;;;1.20;1.10;;;12.60;99.90;;;;;;4959196;28;20537;-32
2023/12/25 09:32:04;;;;;;;1.20;1.10;;;12.60;99.90;;;;;;4972735;23;20795;-34
2023/12/25 09:34:33;;;;;;;1.10;1.00;;;12.60;99.90;;;;;;4961979;28;21084;-32
2023/12/25 09:37:01;;;;;;;1.20;1.10;;;12.60;99.90;;;;;;4969139;28;20457;-34
2023/12/25 09:39:27;;;;;;;1.10;1.00;;;12.60;99.90;;;;;;4940355;28;20437;-30
2023/12/25 09:41:56;;;;;;;1.13;1.03;;;12.60;99.90;;;;;;4953069;28;20512;-33
2023/12/25 09:44:26;;;;;;;1.17;1.10;;;12.60;99.90;;;;;;4953429;28;20922;-34
2023/12/25 09:46:52;;;;;;;1.23;1.13;;;12.60;99.90;;;;;;4949140;28;20477;-35
2023/12/25 09:49:20;;;;;;;3.13;1.00;;;12.60;99.90;;;;;;4975711;28;20460;-33
2023/12/25 09:51:48;;;;;;;1.40;1.00;;;12.60;99.90;;;;;;4935508;28;20553;-33
2023/12/25 09:54:14;;;;;;;1.30;1.20;;;12.70;99.90;;;;;;4934969;28;20963;-32
2023/12/25 09:56:43;;;;;;;2.37;1.30;;;12.60;99.90;;;;;;4950052;28;20442;-34
2023/12/25 09:59:10;;;;;;;1.70;1.03;;;12.60;99.90;;;;;;4963606;28;20452;-37
2023/12/25 10:01:40;;;;;;;1.20;1.10;;;12.60;99.90;;;;;;4941315;28;20517;-31
2023/12/25 10:04:07;;;;;;;1.37;1.27;;;12.60;99.90;;;;;;4948821;28;20434;-32
2023/12/25 10:06:35;;;;;;;1.30;1.20;;;12.70;99.90;;;;;;4973937;28;20484;-30
2023/12/25 10:09:03;;;;;;;1.13;1.00;;;12.70;99.90;;;;;;4967719;28;21046;-31
2023/12/25 10:11:29;;;;;;;0.90;0.90;;;12.70;99.90;;;;;;4968133;28;20421;-34
2023/12/25 10:13:55;;;;;;;1.30;1.20;;;12.70;99.90;;;;;;4961782;28;20533;-29
2023/12/25 10:16:23;;;;;;;1.10;1.00;;;12.70;99.90;;;;;;4944886;28;20462;-32
2023/12/25 10:18:49;;;;;;;1.40;1.10;;;12.70;99.90;;;;;;4971116;28;21086;-33
2023/12/25 10:21:16;;;;;;;1.30;1.00;;;12.70;99.90;;;;;;4971249;28;20975;-33
2023/12/25 10:23:49;;;;;;;1.20;1.10;;;12.70;99.90;;;;;;4967775;28;20447;-34
2023/12/25 10:26:30;;;;;;;1.03;0.93;;;12.70;99.90;;;;;;4949341;28;20470;-32
2023/12/25 10:29:09;;;;;;;1.33;1.20;;;12.70;99.90;;;;;;4972727;28;20859;-34
2023/12/25 10:31:40;;;;;;;4.30;1.00;;;12.70;99.90;;;;;;4951569;28;20448;-34
2023/12/25 10:34:06;;;;;;;1.20;1.10;;;12.70;99.90;;;;;;4945548;28;20438;-31
2023/12/25 10:36:33;;;;;;;1.37;1.27;;;12.70;99.90;;;;;;4948196;28;20449;-32
2023/12/25 10:39:02;;;;;;;1.43;1.20;;;12.70;99.90;;;;;;4967884;28;20523;-31
2023/12/25 10:41:32;;;;;;;1.07;1.00;;;12.70;99.90;;;;;;4970869;28;20444;-36
2023/12/25 10:44:02;;;;;;;1.20;1.10;;;12.70;99.90;;;;;;4938002;28;21380;-32
2023/12/25 10:46:36;;;;;;;1.00;0.90;;;12.70;99.90;;;;;;4966978;28;20501;-31
2023/12/25 10:49:04;;;;;;;1.53;1.43;;;12.70;99.90;;;;;;4955974;28;21310;-31
2023/12/25 10:51:40;;;;;;;1.50;1.40;;;12.70;99.90;;;;;;4953200;28;20469;-31
2023/12/25 10:54:09;;;;;;;1.37;0.97;;;12.70;99.90;;;;;;4950945;28;20440;-32
2023/12/25 10:56:45;;;;;;;1.30;1.20;;;12.70;99.90;;;;;;4972220;28;21272;-33
2023/12/25 10:59:29;;;;;;;1.10;1.00;;;12.70;99.90;;;;;;4935460;28;20433;-32
2023/12/25 11:02:00;;;;;;;1.10;1.00;;;12.70;99.90;;;;;;4944090;28;20429;-32
2023/12/25 11:04:26;;;;;;;1.10;1.00;;;12.70;99.90;;;;;;4936020;28;20462;-28
2023/12/25 11:06:54;;;;;;;1.37;1.27;;;12.70;99.90;;;;;;4971144;28;21174;-30
2023/12/25 11:09:22;;;;;;;2.30;1.33;;;12.70;99.90;;;;;;4936090;28;20806;-31
2023/12/25 11:11:50;;;;;;;1.43;1.33;;;12.70;99.90;;;;;;4974013;28;20994;-34
2023/12/25 11:14:16;;;;;;;1.20;1.10;;;12.70;99.90;;;;;;4974526;28;20525;-30
2023/12/25 11:16:45;;;;;;;1.90;1.10;;;12.70;99.90;;;;;;4943728;28;20464;-35
2023/12/25 11:19:16;;;;;;;1.20;1.10;;;12.70;99.90;;;;;;4951932;28;20521;-31
2023/12/25 11:21:42;;;;;;;1.47;1.37;;;12.70;99.90;;;;;;4950487;28;20446;-30
2023/12/25 11:24:08;;;;;;;1.50;1.20;;;12.70;99.90;;;;;;4970420;28;20483;-30
2023/12/25 11:26:37;;;;;;;1.50;1.40;;;12.70;99.90;;;;;;4956003;28;20477;-33
2023/12/25 11:29:07;;;;;;;1.30;1.20;;;12.70;99.90;;;;;;4973342;28;20541;-32
2023/12/25 11:31:46;;;;;;;1.40;1.30;;;12.70;99.90;;;;;;4954174;28;21034;-35
2023/12/25 11:34:22;;;;;;;1.33;1.20;;;12.70;99.90;;;;;;4969388;28;20529;-29
2023/12/25 11:36:56;;;;;;;1.27;1.17;;;12.70;99.90;;;;;;4937014;28;20563;-32
2023/12/25 11:39:28;;;;;;;1.53;1.43;;;12.70;99.90;;;;;;4969398;28;20449;-31
2023/12/25 11:41:57;;;;;;;1.70;1.50;;;12.70;99.90;;;;;;4957203;28;20442;-35
2023/12/25 11:44:32;;;;;;;3.87;1.30;;;12.70;99.90;;;;;;4936193;28;20444;-31
2023/12/25 11:47:05;;;;;;;1.40;1.30;;;12.70;99.90;;;;;;4955314;28;20504;-33
2023/12/25 11:49:38;;;;;;;1.37;1.27;;;12.70;99.90;;;;;;4951338;28;20469;-32
2023/12/25 11:52:06;;;;;;;1.50;1.13;;;12.70;99.90;;;;;;4950580;28;20446;-34
2023/12/25 11:54:38;;;;;;;1.40;1.30;;;12.70;99.90;;;;;;4956564;28;20453;-33
2023/12/25 11:57:17;;;;;;;1.30;1.20;;;12.70;99.90;;;;;;4971600;28;20457;-33
2023/12/25 11:59:44;;;;;;;1.27;1.17;;;12.70;99.90;;;;;;4955469;28;21287;-36
2023/12/25 12:02:14;;;;;;;1.30;1.20;;;12.70;99.90;;;;;;4977589;28;20463;-34
2023/12/25 12:04:40;;;;;;;1.50;1.30;;;12.70;99.90;;;;;;4970015;28;20449;-33
2023/12/25 12:07:06;;;;;;;1.00;0.90;;;12.70;99.90;;;;;;4952564;28;20704;-33
2023/12/25 12:09:33;;;;;;;1.50;1.40;;;12.80;99.90;;;;;;4950838;28;20441;-31
2023/12/25 12:12:02;;;;;;;1.43;1.33;;;12.70;99.90;;;;;;4955041;28;21129;-36
2023/12/25 12:14:31;;;;;;;1.40;1.30;;;12.80;99.90;;;;;;4939155;28;20935;-31
2023/12/25 12:16:57;;;;;;;1.47;1.10;;;12.80;99.90;;;;;;4947831;28;20514;-38
2023/12/25 12:19:23;;;;;;;2.30;1.40;;;12.80;99.90;;;;;;4972041;28;21251;-36
2023/12/25 12:21:50;;;;;;;1.60;1.30;;;12.70;99.90;;;;;;4948312;28;20422;-36
2023/12/25 12:24:27;;;;;;;1.97;1.30;;;12.80;99.90;;;;;;4971752;28;20842;-32
2023/12/25 12:26:53;;;;;;;1.10;1.00;;;12.80;99.90;;;;;;4958466;28;20980;-36
2023/12/25 12:29:20;;;;;;;1.93;1.30;;;12.80;99.90;;;;;;4977923;28;20433;-37
2023/12/25 12:31:48;;;;;;;1.43;1.33;;;12.80;99.90;;;;;;4953769;28;20552;-28
2023/12/25 12:34:14;;;;;;;1.50;1.40;;;12.80;99.90;;;;;;4969873;28;20453;-29
2023/12/25 12:36:43;;;;;;;1.10;1.00;;;12.70;99.90;;;;;;4976277;28;20961;-32
2023/12/25 12:39:09;;;;;;;1.30;1.20;;;12.80;99.90;;;;;;4970991;28;20937;-32
2023/12/25 12:41:35;;;;;;;1.37;1.27;;;12.70;99.90;;;;;;4933408;28;20446;-29
2023/12/25 12:44:04;;;;;;;1.40;1.30;;;12.80;99.90;;;;;;4966450;28;20527;-31
2023/12/25 12:46:30;;;;;;;1.60;1.50;;;12.80;99.90;;;;;;4941573;28;20477;-30
2023/12/25 12:48:59;;;;;;;1.70;1.60;;;12.80;99.90;;;;;;4962337;28;20587;-31
2023/12/25 12:51:27;;;;;;;1.70;1.60;;;12.80;99.90;;;;;;4947427;28;20432;-33